sensor_id;sensor_type;location;lat;lon;timestamp;pressure;altitude;pressure_sealevel;temperature;humidity
46045;BME280;31781;54.094;13.428;2023-02-26T00:00:10;101474.97;;;2.37;62.40
46045;BME280;31781;54.094;13.428;2023-02-26T00:02:13;101491.25;;;2.36;61.12
46045;BME280;31781;54.094;13.428;2023-02-26T00:04:16;101487.72;;;2.35;61.44
46045;BME280;31781;54.094;13.428;2023-02-26T00:06:18;101490.41;;;2.35;62.03
46045;BME280;31781;54.094;13.428;2023-02-26T00:08:20;101489.41;;;2.36;62.31
46045;BME280;31781;54.094;13.428;2023-02-26T00:10:22;101494.78;;;2.36;62.40
46045;BME280;31781;54.094;13.428;2023-02-26T00:12:24;101494.78;;;2.36;62.29
46045;BME280;31781;54.094;13.428;2023-02-26T00:14:29;101493.09;;;2.35;61.64
46045;BME280;31781;54.094;13.428;2023-02-26T00:16:34;101504.53;;;2.37;62.45
46045;BME280;31781;54.094;13.428;2023-02-26T00:18:36;101502.69;;;2.38;62.19
46045;BME280;31781;54.094;13.428;2023-02-26T00:20:40;101503.53;;;2.38;62.26
46045;BME280;31781;54.094;13.428;2023-02-26T00:22:43;101513.44;;;2.38;61.57
46045;BME280;31781;54.094;13.428;2023-02-26T00:24:46;101512.44;;;2.39;62.06
46045;BME280;31781;54.094;13.428;2023-02-26T00:26:48;101509.03;;;2.37;61.40
46045;BME280;31781;54.094;13.428;2023-02-26T00:28:50;101521.38;;;2.39;62.02
46045;BME280;31781;54.094;13.428;2023-02-26T00:30:52;101524.16;;;2.38;61.68
46045;BME280;31781;54.094;13.428;2023-02-26T00:32:54;101523.31;;;2.37;61.77
46045;BME280;31781;54.094;13.428;2023-02-26T00:34:57;101523.31;;;2.37;61.15
46045;BME280;31781;54.094;13.428;2023-02-26T00:37:09;101535.78;;;2.38;62.67
46045;BME280;31781;54.094;13.428;2023-02-26T00:39:24;101541.13;;;2.38;62.09
46045;BME280;31781;54.094;13.428;2023-02-26T00:41:34;101546.50;;;2.38;62.46
46045;BME280;31781;54.094;13.428;2023-02-26T00:43:36;101545.53;;;2.39;62.23
46045;BME280;31781;54.094;13.428;2023-02-26T00:45:41;101542.97;;;2.38;62.27
46045;BME280;31781;54.094;13.428;2023-02-26T00:47:49;101546.50;;;2.38;61.79
46045;BME280;31781;54.094;13.428;2023-02-26T00:50:04;101545.53;;;2.39;62.46
46045;BME280;31781;54.094;13.428;2023-02-26T00:52:13;101548.22;;;2.39;62.19
46045;BME280;31781;54.094;13.428;2023-02-26T00:54:18;101555.41;;;2.39;62.03
46045;BME280;31781;54.094;13.428;2023-02-26T00:56:21;101559.09;;;2.38;62.01
46045;BME280;31781;54.094;13.428;2023-02-26T00:58:23;101557.25;;;2.38;61.69
46045;BME280;31781;54.094;13.428;2023-02-26T01:00:24;101560.78;;;2.39;61.81
46045;BME280;31781;54.094;13.428;2023-02-26T01:02:26;101558.97;;;2.39;61.78
46045;BME280;31781;54.094;13.428;2023-02-26T01:04:28;101566.16;;;2.39;60.98
46045;BME280;31781;54.094;13.428;2023-02-26T01:06:33;101569.69;;;2.39;61.43
46045;BME280;31781;54.094;13.428;2023-02-26T01:08:42;101577.75;;;2.39;61.94
46045;BME280;31781;54.094;13.428;2023-02-26T01:10:48;101572.22;;;2.41;61.29
46045;BME280;31781;54.094;13.428;2023-02-26T01:12:50;101581.16;;;2.41;61.84
46045;BME280;31781;54.094;13.428;2023-02-26T01:14:53;101577.59;;;2.41;61.96
46045;BME280;31781;54.094;13.428;2023-02-26T01:16:58;101575.78;;;2.41;61.43
46045;BME280;31781;54.094;13.428;2023-02-26T01:19:08;101581.88;;;2.43;62.05
46045;BME280;31781;54.094;13.428;2023-02-26T01:21:17;101578.47;;;2.41;61.49
46045;BME280;31781;54.094;13.428;2023-02-26T01:23:24;101580.28;;;2.41;61.49
46045;BME280;31781;54.094;13.428;2023-02-26T01:25:34;101586.50;;;2.41;62.20
46045;BME280;31781;54.094;13.428;2023-02-26T01:27:38;101591.03;;;2.41;61.96
46045;BME280;31781;54.094;13.428;2023-02-26T01:29:40;101594.56;;;2.41;61.60
46045;BME280;31781;54.094;13.428;2023-02-26T01:31:48;101584.81;;;2.40;62.69
46045;BME280;31781;54.094;13.428;2023-02-26T01:33:55;101584.97;;;2.39;62.07
46045;BME280;31781;54.094;13.428;2023-02-26T01:36:02;101600.09;;;2.40;62.14
46045;BME280;31781;54.094;13.428;2023-02-26T01:38:17;101593.88;;;2.39;62.36
46045;BME280;31781;54.094;13.428;2023-02-26T01:40:54;101601.06;;;2.39;63.39
46045;BME280;31781;54.094;13.428;2023-02-26T01:43:06;101604.63;;;2.39;61.89
46045;BME280;31781;54.094;13.428;2023-02-26T01:45:12;101604.75;;;2.38;62.58
46045;BME280;31781;54.094;13.428;2023-02-26T01:47:20;101608.28;;;2.38;62.67
46045;BME280;31781;54.094;13.428;2023-02-26T01:49:25;101607.41;;;2.38;62.97
46045;BME280;31781;54.094;13.428;2023-02-26T01:51:44;101605.59;;;2.38;62.96
46045;BME280;31781;54.094;13.428;2023-02-26T01:53:46;101605.59;;;2.38;62.81
46045;BME280;31781;54.094;13.428;2023-02-26T01:55:51;101610.09;;;2.38;62.57
46045;BME280;31781;54.094;13.428;2023-02-26T01:57:59;101610.97;;;2.38;63.18
46045;BME280;31781;54.094;13.428;2023-02-26T02:00:03;101620.84;;;2.38;62.90
46045;BME280;31781;54.094;13.428;2023-02-26T02:02:07;101612.94;;;2.36;62.60
46045;BME280;31781;54.094;13.428;2023-02-26T02:04:12;101613.78;;;2.37;62.66
46045;BME280;31781;54.094;13.428;2023-02-26T02:06:18;101618.31;;;2.36;62.49
46045;BME280;31781;54.094;13.428;2023-02-26T02:08:21;101627.19;;;2.37;62.50
46045;BME280;31781;54.094;13.428;2023-02-26T02:10:26;101632.56;;;2.37;62.60
46045;BME280;31781;54.094;13.428;2023-02-26T02:12:34;101628.06;;;2.37;63.83
46045;BME280;31781;54.094;13.428;2023-02-26T02:14:45;101636.84;;;2.39;63.46
46045;BME280;31781;54.094;13.428;2023-02-26T02:16:55;101640.50;;;2.38;63.33
46045;BME280;31781;54.094;13.428;2023-02-26T02:19:17;101634.16;;;2.39;63.74
46045;BME280;31781;54.094;13.428;2023-02-26T02:23:55;101649.53;;;2.37;63.06
46045;BME280;31781;54.094;13.428;2023-02-26T02:28:36;101657.59;;;2.37;63.45
46045;BME280;31781;54.094;13.428;2023-02-26T02:30:55;101662.25;;;2.35;63.46
46045;BME280;31781;54.094;13.428;2023-02-26T02:32:58;101659.69;;;2.34;62.40
46045;BME280;31781;54.094;13.428;2023-02-26T02:35:08;101666.91;;;2.33;63.47
46045;BME280;31781;54.094;13.428;2023-02-26T02:37:15;101668.72;;;2.33;63.09
46045;BME280;31781;54.094;13.428;2023-02-26T02:39:24;101676.78;;;2.33;63.67
46045;BME280;31781;54.094;13.428;2023-02-26T02:41:31;101683.16;;;2.32;63.42
46045;BME280;31781;54.094;13.428;2023-02-26T02:43:36;101678.75;;;2.31;62.89
46045;BME280;31781;54.094;13.428;2023-02-26T02:45:42;101679.75;;;2.30;62.54
46045;BME280;31781;54.094;13.428;2023-02-26T02:47:47;101674.38;;;2.30;63.02
46045;BME280;31781;54.094;13.428;2023-02-26T02:49:54;101681.56;;;2.29;63.04
46045;BME280;31781;54.094;13.428;2023-02-26T02:52:00;101677.22;;;2.28;62.61
46045;BME280;31781;54.094;13.428;2023-02-26T02:54:07;101684.25;;;2.29;62.55
46045;BME280;31781;54.094;13.428;2023-02-26T02:56:14;101686.94;;;2.29;62.45
46045;BME280;31781;54.094;13.428;2023-02-26T02:58:21;101691.50;;;2.29;62.80
46045;BME280;31781;54.094;13.428;2023-02-26T03:00:25;101689.91;;;2.26;62.92
46045;BME280;31781;54.094;13.428;2023-02-26T03:02:31;101693.44;;;2.27;62.82
46045;BME280;31781;54.094;13.428;2023-02-26T03:04:39;101701.50;;;2.27;63.18
46045;BME280;31781;54.094;13.428;2023-02-26T03:06:42;101706.00;;;2.26;63.12
46045;BME280;31781;54.094;13.428;2023-02-26T03:08:46;101720.44;;;2.25;62.46
46045;BME280;31781;54.094;13.428;2023-02-26T03:10:48;101718.56;;;2.26;62.69
46045;BME280;31781;54.094;13.428;2023-02-26T03:12:50;101718.72;;;2.24;62.52
46045;BME280;31781;54.094;13.428;2023-02-26T03:14:51;101723.94;;;2.26;62.93
46045;BME280;31781;54.094;13.428;2023-02-26T03:17:06;101728.34;;;2.27;63.52
46045;BME280;31781;54.094;13.428;2023-02-26T03:19:17;101718.56;;;2.26;63.14
46045;BME280;31781;54.094;13.428;2023-02-26T03:21:26;101727.75;;;2.23;62.85
46045;BME280;31781;54.094;13.428;2023-02-26T03:23:33;101738.50;;;2.23;62.45
46045;BME280;31781;54.094;13.428;2023-02-26T03:25:46;101731.41;;;2.22;62.71
46045;BME280;31781;54.094;13.428;2023-02-26T03:27:54;101742.16;;;2.22;63.39
46045;BME280;31781;54.094;13.428;2023-02-26T03:30:02;101737.78;;;2.21;62.59
46045;BME280;31781;54.094;13.428;2023-02-26T03:32:09;101737.91;;;2.20;62.58
46045;BME280;31781;54.094;13.428;2023-02-26T03:34:17;101739.75;;;2.19;62.72
46045;BME280;31781;54.094;13.428;2023-02-26T03:36:25;101730.97;;;2.17;63.23
46045;BME280;31781;54.094;13.428;2023-02-26T03:38:33;101743.41;;;2.18;62.81
46045;BME280;31781;54.094;13.428;2023-02-26T03:40:41;101740.00;;;2.16;63.30
46045;BME280;31781;54.094;13.428;2023-02-26T03:42:46;101750.03;;;2.14;62.55
46045;BME280;31781;54.094;13.428;2023-02-26T03:44:52;101740.53;;;2.10;62.95
46045;BME280;31781;54.094;13.428;2023-02-26T03:46:59;101751.28;;;2.10;62.76
46045;BME280;31781;54.094;13.428;2023-02-26T03:49:06;101757.72;;;2.08;62.73
46045;BME280;31781;54.094;13.428;2023-02-26T03:51:11;101757.16;;;2.04;62.77
46045;BME280;31781;54.094;13.428;2023-02-26T03:53:18;101761.81;;;2.02;62.99
46045;BME280;31781;54.094;13.428;2023-02-26T03:55:27;101764.59;;;2.01;63.37
46045;BME280;31781;54.094;13.428;2023-02-26T03:57:29;101769.38;;;1.97;62.42
46045;BME280;31781;54.094;13.428;2023-02-26T03:59:32;101773.03;;;1.96;63.19
46045;BME280;31781;54.094;13.428;2023-02-26T04:01:40;101784.78;;;1.95;63.47
46045;BME280;31781;54.094;13.428;2023-02-26T04:03:48;101778.56;;;1.94;63.48
46045;BME280;31781;54.094;13.428;2023-02-26T04:05:51;101780.50;;;1.92;62.54
46045;BME280;31781;54.094;13.428;2023-02-26T04:07:55;101781.34;;;1.93;63.32
46045;BME280;31781;54.094;13.428;2023-02-26T04:09:59;101794.91;;;1.91;63.33
46045;BME280;31781;54.094;13.428;2023-02-26T04:12:00;101795.19;;;1.88;62.71
46045;BME280;31781;54.094;13.428;2023-02-26T04:14:02;101796.00;;;1.89;62.73
46045;BME280;31781;54.094;13.428;2023-02-26T04:16:04;101798.94;;;1.86;63.16
46045;BME280;31781;54.094;13.428;2023-02-26T04:18:06;101796.41;;;1.84;62.96
46045;BME280;31781;54.094;13.428;2023-02-26T04:20:09;101796.53;;;1.83;62.89
46045;BME280;31781;54.094;13.428;2023-02-26T04:22:10;101810.06;;;1.81;63.27
46045;BME280;31781;54.094;13.428;2023-02-26T04:24:12;101796.03;;;1.78;63.47
46045;BME280;31781;54.094;13.428;2023-02-26T04:26:15;101807.78;;;1.77;63.46
46045;BME280;31781;54.094;13.428;2023-02-26T04:28:17;101804.50;;;1.73;63.07
46045;BME280;31781;54.094;13.428;2023-02-26T04:30:19;101809.97;;;1.72;63.13
46045;BME280;31781;54.094;13.428;2023-02-26T04:32:21;101807.53;;;1.69;63.29
46045;BME280;31781;54.094;13.428;2023-02-26T04:34:22;101819.50;;;1.65;63.49
46045;BME280;31781;54.094;13.428;2023-02-26T04:36:24;101809.88;;;1.62;63.26
46045;BME280;31781;54.094;13.428;2023-02-26T04:38:26;101809.41;;;1.57;63.01
46045;BME280;31781;54.094;13.428;2023-02-26T04:40:28;101819.41;;;1.55;63.69
46045;BME280;31781;54.094;13.428;2023-02-26T04:42:31;101806.38;;;1.51;63.69
46045;BME280;31781;54.094;13.428;2023-02-26T04:44:33;101818.06;;;1.50;64.01
46045;BME280;31781;54.094;13.428;2023-02-26T04:46:35;101818.31;;;1.46;63.65
46045;BME280;31781;54.094;13.428;2023-02-26T04:48:37;101826.47;;;1.45;63.51
46045;BME280;31781;54.094;13.428;2023-02-26T04:50:39;101833.91;;;1.41;64.50
46045;BME280;31781;54.094;13.428;2023-02-26T04:52:41;101835.88;;;1.39;64.60
46045;BME280;31781;54.094;13.428;2023-02-26T04:54:43;101843.19;;;1.37;64.57
46045;BME280;31781;54.094;13.428;2023-02-26T04:56:44;101843.44;;;1.34;64.80
46045;BME280;31781;54.094;13.428;2023-02-26T04:58:47;101845.41;;;1.32;64.43
46045;BME280;31781;54.094;13.428;2023-02-26T05:00:49;101856.38;;;1.29;65.02
46045;BME280;31781;54.094;13.428;2023-02-26T05:02:51;101863.66;;;1.27;65.26
46045;BME280;31781;54.094;13.428;2023-02-26T05:04:53;101865.75;;;1.24;64.99
46045;BME280;31781;54.094;13.428;2023-02-26T05:06:55;101865.13;;;1.20;64.83
46045;BME280;31781;54.094;13.428;2023-02-26T05:08:56;101876.09;;;1.17;64.84
46045;BME280;31781;54.094;13.428;2023-02-26T05:10:58;101869.28;;;1.13;64.57
46045;BME280;31781;54.094;13.428;2023-02-26T05:12:59;101872.06;;;1.12;64.65
46045;BME280;31781;54.094;13.428;2023-02-26T05:15:04;101879.50;;;1.08;64.86
46045;BME280;31781;54.094;13.428;2023-02-26T05:17:07;101882.16;;;1.08;64.83
46045;BME280;31781;54.094;13.428;2023-02-26T05:19:08;101886.81;;;1.06;65.03
46045;BME280;31781;54.094;13.428;2023-02-26T05:21:10;101882.53;;;1.04;65.06
46045;BME280;31781;54.094;13.428;2023-02-26T05:23:12;101888.03;;;1.02;65.13
46045;BME280;31781;54.094;13.428;2023-02-26T05:25:14;101891.66;;;1.01;65.42
46045;BME280;31781;54.094;13.428;2023-02-26T05:27:16;101893.72;;;0.97;65.23
46045;BME280;31781;54.094;13.428;2023-02-26T05:29:18;101893.88;;;0.96;65.30
46045;BME280;31781;54.094;13.428;2023-02-26T05:31:21;101893.97;;;0.94;65.39
46045;BME280;31781;54.094;13.428;2023-02-26T05:33:23;101903.13;;;0.92;65.37
46045;BME280;31781;54.094;13.428;2023-02-26T05:35:25;101901.50;;;0.89;65.04
46045;BME280;31781;54.094;13.428;2023-02-26T05:37:27;101905.19;;;0.88;65.32
46045;BME280;31781;54.094;13.428;2023-02-26T05:39:29;101907.25;;;0.85;65.17
46045;BME280;31781;54.094;13.428;2023-02-26T05:41:31;101902.00;;;0.83;64.97
46045;BME280;31781;54.094;13.428;2023-02-26T05:43:34;101911.13;;;0.81;65.66
46045;BME280;31781;54.094;13.428;2023-02-26T05:45:36;101908.56;;;0.79;65.61
46045;BME280;31781;54.094;13.428;2023-02-26T05:47:39;101917.56;;;0.78;65.87
46045;BME280;31781;54.094;13.428;2023-02-26T05:49:41;101915.13;;;0.75;66.00
46045;BME280;31781;54.094;13.428;2023-02-26T05:51:42;101915.97;;;0.76;65.47
46045;BME280;31781;54.094;13.428;2023-02-26T05:53:44;101914.25;;;0.75;65.86
46045;BME280;31781;54.094;13.428;2023-02-26T05:55:46;101934.97;;;0.73;65.92
46045;BME280;31781;54.094;13.428;2023-02-26T05:57:48;101934.09;;;0.72;66.32
46045;BME280;31781;54.094;13.428;2023-02-26T05:59:49;101938.69;;;0.70;66.22
46045;BME280;31781;54.094;13.428;2023-02-26T06:01:51;101938.84;;;0.69;65.96
46045;BME280;31781;54.094;13.428;2023-02-26T06:03:55;101940.75;;;0.67;66.12
46045;BME280;31781;54.094;13.428;2023-02-26T06:05:56;101947.97;;;0.66;65.97
46045;BME280;31781;54.094;13.428;2023-02-26T06:07:58;101952.56;;;0.64;66.06
46045;BME280;31781;54.094;13.428;2023-02-26T06:09:59;101951.72;;;0.64;66.05
46045;BME280;31781;54.094;13.428;2023-02-26T06:12:01;101954.53;;;0.62;65.91
46045;BME280;31781;54.094;13.428;2023-02-26T06:14:03;101961.69;;;0.62;66.37
46045;BME280;31781;54.094;13.428;2023-02-26T06:16:05;101958.25;;;0.60;65.91
46045;BME280;31781;54.094;13.428;2023-02-26T06:18:07;101958.41;;;0.58;66.54
46045;BME280;31781;54.094;13.428;2023-02-26T06:20:11;101968.16;;;0.59;66.68
46045;BME280;31781;54.094;13.428;2023-02-26T06:22:13;101974.56;;;0.57;66.18
46045;BME280;31781;54.094;13.428;2023-02-26T06:24:14;101972.84;;;0.56;66.13
46045;BME280;31781;54.094;13.428;2023-02-26T06:26:16;101974.69;;;0.55;66.62
46045;BME280;31781;54.094;13.428;2023-02-26T06:28:18;101975.53;;;0.56;66.65
46045;BME280;31781;54.094;13.428;2023-02-26T06:30:20;101983.69;;;0.54;66.76
46045;BME280;31781;54.094;13.428;2023-02-26T06:32:22;101988.19;;;0.54;66.94
46045;BME280;31781;54.094;13.428;2023-02-26T06:34:27;101989.06;;;0.54;66.60
46045;BME280;31781;54.094;13.428;2023-02-26T06:36:30;101997.81;;;0.56;67.06
46045;BME280;31781;54.094;13.428;2023-02-26T06:38:32;101995.03;;;0.58;66.84
46045;BME280;31781;54.094;13.428;2023-02-26T06:40:33;102005.50;;;0.61;66.26
46045;BME280;31781;54.094;13.428;2023-02-26T06:42:35;102004.66;;;0.60;66.80
46045;BME280;31781;54.094;13.428;2023-02-26T06:44:37;102001.00;;;0.61;66.34
46045;BME280;31781;54.094;13.428;2023-02-26T06:46:38;102008.09;;;0.62;66.30
46045;BME280;31781;54.094;13.428;2023-02-26T06:48:40;102014.41;;;0.61;66.64
46045;BME280;31781;54.094;13.428;2023-02-26T06:50:42;102013.53;;;0.61;67.09
46045;BME280;31781;54.094;13.428;2023-02-26T06:52:45;102019.75;;;0.61;67.23
46045;BME280;31781;54.094;13.428;2023-02-26T06:54:46;102023.28;;;0.62;66.61
46045;BME280;31781;54.094;13.428;2023-02-26T06:56:48;102022.44;;;0.61;66.51
46045;BME280;31781;54.094;13.428;2023-02-26T06:58:50;102028.66;;;0.62;66.83
46045;BME280;31781;54.094;13.428;2023-02-26T07:00:51;102025.00;;;0.63;66.73
46045;BME280;31781;54.094;13.428;2023-02-26T07:02:53;102032.81;;;0.66;67.00
46045;BME280;31781;54.094;13.428;2023-02-26T07:04:55;102038.03;;;0.67;66.89
46045;BME280;31781;54.094;13.428;2023-02-26T07:06:57;102036.13;;;0.69;67.31
46045;BME280;31781;54.094;13.428;2023-02-26T07:09:00;102037.59;;;0.73;66.58
46045;BME280;31781;54.094;13.428;2023-02-26T07:11:02;102047.00;;;0.79;66.80
46045;BME280;31781;54.094;13.428;2023-02-26T07:13:04;102044.94;;;0.82;66.42
46045;BME280;31781;54.094;13.428;2023-02-26T07:15:06;102050.81;;;0.87;66.77
46045;BME280;31781;54.094;13.428;2023-02-26T07:17:08;102050.34;;;0.93;66.46
46045;BME280;31781;54.094;13.428;2023-02-26T07:19:11;102045.38;;;1.00;66.67
46045;BME280;31781;54.094;13.428;2023-02-26T07:21:13;102051.16;;;1.07;66.47
46045;BME280;31781;54.094;13.428;2023-02-26T07:23:15;102059.44;;;1.15;66.24
46045;BME280;31781;54.094;13.428;2023-02-26T07:25:18;102055.34;;;1.22;66.83
46045;BME280;31781;54.094;13.428;2023-02-26T07:27:20;102062.81;;;1.29;66.53
46045;BME280;31781;54.094;13.428;2023-02-26T07:29:21;102053.19;;;1.38;66.21
46045;BME280;31781;54.094;13.428;2023-02-26T07:31:23;102062.22;;;1.48;65.52
46045;BME280;31781;54.094;13.428;2023-02-26T07:33:25;102061.53;;;1.57;66.04
46045;BME280;31781;54.094;13.428;2023-02-26T07:35:27;102064.94;;;1.70;65.33
46045;BME280;31781;54.094;13.428;2023-02-26T07:37:28;102067.19;;;1.87;64.92
46045;BME280;31781;54.094;13.428;2023-02-26T07:39:31;102075.00;;;2.02;64.51
46045;BME280;31781;54.094;13.428;2023-02-26T07:41:34;102075.00;;;2.13;64.49
46045;BME280;31781;54.094;13.428;2023-02-26T07:43:37;102084.00;;;2.23;64.09
46045;BME280;31781;54.094;13.428;2023-02-26T07:45:39;102076.91;;;2.33;63.43
46045;BME280;31781;54.094;13.428;2023-02-26T07:47:41;102086.56;;;2.47;63.65
46045;BME280;31781;54.094;13.428;2023-02-26T07:49:43;102080.44;;;2.56;63.88
46045;BME280;31781;54.094;13.428;2023-02-26T07:51:44;102088.63;;;2.65;62.92
46045;BME280;31781;54.094;13.428;2023-02-26T07:53:46;102086.75;;;2.77;63.22
46045;BME280;31781;54.094;13.428;2023-02-26T07:55:48;102085.88;;;2.87;63.47
46045;BME280;31781;54.094;13.428;2023-02-26T07:57:52;102090.47;;;2.97;63.05
46045;BME280;31781;54.094;13.428;2023-02-26T07:59:53;102090.44;;;3.08;62.39
46045;BME280;31781;54.094;13.428;2023-02-26T08:01:55;102097.59;;;3.18;62.50
46045;BME280;31781;54.094;13.428;2023-02-26T08:03:56;102093.19;;;3.28;61.26
46045;BME280;31781;54.094;13.428;2023-02-26T08:05:58;102096.78;;;3.38;61.46
46045;BME280;31781;54.094;13.428;2023-02-26T08:08:00;102104.06;;;3.48;60.85
46045;BME280;31781;54.094;13.428;2023-02-26T08:10:02;102103.31;;;3.57;60.64
46045;BME280;31781;54.094;13.428;2023-02-26T08:12:04;102108.75;;;3.66;60.60
46045;BME280;31781;54.094;13.428;2023-02-26T08:14:09;102112.50;;;3.75;60.65
46045;BME280;31781;54.094;13.428;2023-02-26T08:16:11;102109.84;;;3.84;59.92
46045;BME280;31781;54.094;13.428;2023-02-26T08:18:13;102110.91;;;3.93;59.10
46045;BME280;31781;54.094;13.428;2023-02-26T08:20:15;102113.78;;;4.01;58.72
46045;BME280;31781;54.094;13.428;2023-02-26T08:22:17;102123.75;;;4.10;58.61
46045;BME280;31781;54.094;13.428;2023-02-26T08:24:18;102126.63;;;4.18;58.67
46045;BME280;31781;54.094;13.428;2023-02-26T08:26:20;102121.44;;;4.26;58.13
46045;BME280;31781;54.094;13.428;2023-02-26T08:28:22;102122.31;;;4.36;58.70
46045;BME280;31781;54.094;13.428;2023-02-26T08:30:25;102133.16;;;4.46;58.30
46045;BME280;31781;54.094;13.428;2023-02-26T08:32:26;102131.34;;;4.56;58.30
46045;BME280;31781;54.094;13.428;2023-02-26T08:34:28;102130.38;;;4.67;58.14
46045;BME280;31781;54.094;13.428;2023-02-26T08:36:31;102132.09;;;4.77;57.99
46045;BME280;31781;54.094;13.428;2023-02-26T08:38:33;102140.09;;;4.88;57.04
46045;BME280;31781;54.094;13.428;2023-02-26T08:40:35;102139.13;;;4.99;57.65
46045;BME280;31781;54.094;13.428;2023-02-26T08:42:37;102139.00;;;5.10;57.35
46045;BME280;31781;54.094;13.428;2023-02-26T08:44:38;102134.47;;;5.20;56.59
46045;BME280;31781;54.094;13.428;2023-02-26T08:46:41;102146.81;;;5.32;56.32
46045;BME280;31781;54.094;13.428;2023-02-26T08:48:43;102137.75;;;5.53;55.50
46045;BME280;31781;54.094;13.428;2023-02-26T08:50:45;102139.28;;;5.84;55.35
46045;BME280;31781;54.094;13.428;2023-02-26T08:52:46;102141.09;;;6.22;54.07
46045;BME280;31781;54.094;13.428;2023-02-26T08:54:48;102141.09;;;6.59;53.67
46045;BME280;31781;54.094;13.428;2023-02-26T08:56:50;102144.91;;;6.93;53.02
46045;BME280;31781;54.094;13.428;2023-02-26T08:58:51;102140.16;;;7.22;52.27
46045;BME280;31781;54.094;13.428;2023-02-26T09:00:53;102137.91;;;7.35;51.49
46045;BME280;31781;54.094;13.428;2023-02-26T09:02:56;102144.97;;;7.64;50.03
46045;BME280;31781;54.094;13.428;2023-02-26T09:04:58;102142.28;;;7.90;49.80
46045;BME280;31781;54.094;13.428;2023-02-26T09:06:59;102146.19;;;8.13;49.21
46045;BME280;31781;54.094;13.428;2023-02-26T09:09:02;102139.41;;;8.35;48.80
46045;BME280;31781;54.094;13.428;2023-02-26T09:11:04;102156.63;;;8.51;48.09
46045;BME280;31781;54.094;13.428;2023-02-26T09:13:07;102157.72;;;8.66;47.61
46045;BME280;31781;54.094;13.428;2023-02-26T09:15:10;102161.81;;;8.70;48.00
46045;BME280;31781;54.094;13.428;2023-02-26T09:17:12;102166.53;;;8.68;48.64
46045;BME280;31781;54.094;13.428;2023-02-26T09:19:15;102164.75;;;8.51;48.75
46045;BME280;31781;54.094;13.428;2023-02-26T09:21:16;102158.47;;;8.51;48.86
46045;BME280;31781;54.094;13.428;2023-02-26T09:23:18;102170.66;;;8.47;47.88
46045;BME280;31781;54.094;13.428;2023-02-26T09:25:20;102175.88;;;8.40;48.27
46045;BME280;31781;54.094;13.428;2023-02-26T09:27:22;102187.19;;;8.36;48.11
46045;BME280;31781;54.094;13.428;2023-02-26T09:29:23;102187.69;;;8.31;49.49
46045;BME280;31781;54.094;13.428;2023-02-26T09:31:25;102186.84;;;8.30;48.48
46045;BME280;31781;54.094;13.428;2023-02-26T09:33:27;102197.69;;;8.30;49.80
46045;BME280;31781;54.094;13.428;2023-02-26T09:35:31;102196.66;;;8.31;49.79
46045;BME280;31781;54.094;13.428;2023-02-26T09:37:32;102199.94;;;8.35;48.98
46045;BME280;31781;54.094;13.428;2023-02-26T09:39:35;102212.63;;;8.35;49.46
46045;BME280;31781;54.094;13.428;2023-02-26T09:41:39;102212.94;;;8.31;50.26
46045;BME280;31781;54.094;13.428;2023-02-26T09:44:10;102219.59;;;8.37;53.46
46045;BME280;31781;54.094;13.428;2023-02-26T09:46:23;102223.22;;;8.28;51.39
46045;BME280;31781;54.094;13.428;2023-02-26T09:48:29;102231.75;;;8.33;50.64
46045;BME280;31781;54.094;13.428;2023-02-26T09:50:38;102230.97;;;8.41;51.47
46045;BME280;31781;54.094;13.428;2023-02-26T09:52:45;102240.81;;;8.42;50.61
46045;BME280;31781;54.094;13.428;2023-02-26T09:54:48;102239.22;;;8.31;50.01
46045;BME280;31781;54.094;13.428;2023-02-26T09:56:52;102251.50;;;8.25;50.11
46045;BME280;31781;54.094;13.428;2023-02-26T09:58:55;102248.78;;;8.25;50.01
46045;BME280;31781;54.094;13.428;2023-02-26T10:01:02;102253.59;;;8.14;50.93
46045;BME280;31781;54.094;13.428;2023-02-26T10:03:18;102256.78;;;8.09;52.83
46045;BME280;31781;54.094;13.428;2023-02-26T10:05:26;102258.50;;;8.10;51.61
46045;BME280;31781;54.094;13.428;2023-02-26T10:07:39;102263.28;;;7.99;51.49
46045;BME280;31781;54.094;13.428;2023-02-26T10:09:56;102266.78;;;8.09;51.59
46045;BME280;31781;54.094;13.428;2023-02-26T10:12:04;102267.16;;;8.14;49.57
46045;BME280;31781;54.094;13.428;2023-02-26T10:14:11;102259.97;;;8.22;50.09
46045;BME280;31781;54.094;13.428;2023-02-26T10:16:19;102267.34;;;8.30;49.47
46045;BME280;31781;54.094;13.428;2023-02-26T10:18:23;102267.94;;;8.42;49.31
46045;BME280;31781;54.094;13.428;2023-02-26T10:20:31;102271.78;;;8.57;50.04
46045;BME280;31781;54.094;13.428;2023-02-26T10:22:40;102269.97;;;8.65;50.23
46045;BME280;31781;54.094;13.428;2023-02-26T10:24:47;102274.59;;;8.73;48.94
46045;BME280;31781;54.094;13.428;2023-02-26T10:26:51;102280.59;;;8.85;49.40
46045;BME280;31781;54.094;13.428;2023-02-26T10:28:59;102285.63;;;8.97;49.56
46045;BME280;31781;54.094;13.428;2023-02-26T10:31:08;102278.19;;;9.07;48.77
46045;BME280;31781;54.094;13.428;2023-02-26T10:33:21;102281.81;;;9.16;49.22
46045;BME280;31781;54.094;13.428;2023-02-26T10:35:31;102285.41;;;9.24;47.23
46045;BME280;31781;54.094;13.428;2023-02-26T10:37:45;102296.16;;;9.34;49.21
46045;BME280;31781;54.094;13.428;2023-02-26T10:39:52;102295.00;;;9.45;47.82
46045;BME280;31781;54.094;13.428;2023-02-26T10:42:00;102300.13;;;9.56;48.57
46045;BME280;31781;54.094;13.428;2023-02-26T10:44:08;102303.41;;;9.67;48.08
46045;BME280;31781;54.094;13.428;2023-02-26T10:46:22;102309.81;;;9.58;46.97
46045;BME280;31781;54.094;13.428;2023-02-26T10:48:41;102315.28;;;9.66;49.07
46045;BME280;31781;54.094;13.428;2023-02-26T10:50:49;102314.75;;;9.63;46.15
46045;BME280;31781;54.094;13.428;2023-02-26T10:52:54;102318.69;;;9.76;46.77
46045;BME280;31781;54.094;13.428;2023-02-26T10:55:07;102319.72;;;9.75;48.90